Yichuan, China
Current Conditions -  °F | °C
As of 2:00 AM on Saturday 22 Nov 2014 (Local Time) from ZHCC Reporting Station
Haze Haze  
Wind Chill: 50°   Ceiling: Unl
Heat Index: 50°   Visibility: 0.62mi
Dew Point: 43°   Wind: 4mph
Humidity: 76%   Direction: 300°WNW
Pressure: 30.18"   Gusts: NA
Location:  34.42°N, 112.43°E
Report Text: ZHCC 211800Z 30002MPS 1000 R12/1600N BR NSC 10/06 Q1022 NOSIG
Loading
Personal Weather Stations






























Interactive Weather Map New forecast layout! Learn more

10-Day Weather Forecast

Advertisements
Track Severe Weather on mobile